Mobridge Municipal Airport
KMBG : now visible

Airfield :











YOU CAN JOIN US ON...

 
LOGIN :

Register | Disclaimer

   EN    FR    IT 

 









Legend :    VFR   Marginal VFR   IFR   Intensive IFR   Very Intensive IFR
Visi :
Ceiling :
>= 8 km
>= 3000ft
5 to 8 km
1000 to 3000 ft
1500m to 5 km
500 to 1000 ft
800 to 1500m
200 to 500 ft
< 800m
< 200 ft
Symbols :   Thunderstorms  Fog  Heavy snow  Heavy precipitations  Wind > 20 kt






- Airport Elevation : 1716 ft


KMBG - Mobridge Municipal

CURRENT METAR :
  • 041852Z AUTO 17011G23KT 10SM CLR 30/22 A2995 RMK AO2 PK WND 14027/1834 PRESRR SLP129 T03000222

EXPIRED METARs :
  • 041752Z AUTO 16013G19KT 10SM CLR 29/21 A2997 RMK AO2 SLP133 60000 T02940206 10300 20200 56005
  • 041652Z AUTO 13011KT 10SM CLR 29/20 A2999 RMK AO2 PK WND 10030/1603 PRESRR SLP140 T02940200

TAF KMBG
Valid from the 04 at 18:00 until the 05 at 18:00 UTC


041724Z 0418/0518 13011KT P6SM SKC
FM050200 17009KT P6SM VCTS FEW080CB SCT250
FM050800 13009KT P6SM SCT250
FM051100 16008KT P6SM VCSH SCT200
KZMP FIR / North America



MET'MAP, your aeronautical weather chart ! - Copyright ORBIFLY December 2007 - Disclaimer

ORBIFLY MET'MAP TEAM :

Programming & Development : Alexandra Zaïnal
Concept & original design : Baudouin d'Aumeries
Assistance for programming : Marc-Olivier Méhu
Technical & hardware support : Manuel Goepfert

Contact : metmap@orbifly.com




SOURCES & CREDITS :

   NOAA       Earth
Advisory